Jepson Prairie Reserve, California Weather observations

Data are for 10 minute period ending at time listed.
 Day   Time   Solar   Ave.   Ave.  Ave.  Vector  Max.   Baro.   Total    
  of    of     Rad.   Air    Rel.  Wind   Wind   Wind  Press.  Precip.   
Year   Day            Temp.  Hum.  Speed  Dir.   Gust                    
2016   (PST)  Kw/m2    F      %     mph   deg.    mph    mb.     in.     
-------------------------------------------------------------------------
  38   22:10   0.00   51.2    91    6.0   346     8.1   1021.7    0.00 
  38   22:20   0.00   50.9    92    6.4   332     7.4   1022.0    0.00 
  38   22:30   0.00   50.5    92    6.5   333     8.0   1021.7    0.00 
  38   22:40   0.00   50.2    92    6.4   333     6.9   1021.7    0.00 
  38   22:50   0.00   49.9    93    5.4   340     7.2   1022.0    0.00 
  38   23:00   0.00   49.7    93    5.4   334     6.2   1022.0    0.00 
  38   23:10   0.00   50.1    93    5.7   331     6.7   1022.4    0.00 
  38   23:20   0.00   50.3    92    5.8   336     6.7   1022.4    0.00 
  38   23:30   0.00   50.4    92    3.9   346     5.7   1022.4    0.00 
  38   23:40   0.00   49.6    92    4.3   342     5.8   1022.4    0.00 
  38   23:50   0.00   49.8    93    4.9   354     6.0   1022.4    0.00 
  39    0:00   0.00   50.5    92    5.9   353     7.1   1022.0    0.00 
  39    0:10   0.00   49.4    91    4.4   337     6.1   1022.4    0.00 
  39    0:20   0.00   49.3    93    4.0   344     5.2   1022.4    0.00 
  39    0:30   0.00   50.4    92    4.1     3     6.4   1022.4    0.00 
  39    0:40   0.00   50.7    90    5.8   352     6.6   1022.0    0.00 
  39    0:50   0.00   50.8    90    5.7     7     7.5   1022.0    0.00 
  39    1:00   0.00   48.9    90    6.2    22     7.0   1022.0    0.00 
  39    1:10   0.00   50.8    90    7.2    26     8.3   1022.0    0.00 
  39    1:20   0.00   48.5    89    5.8    36     6.9   1022.0    0.00 
  39    1:30   0.00   45.2    92    4.6    71     5.7   1022.0    0.00 
  39    1:40   0.00   44.0    96    2.2    34     3.9   1022.0    0.00 
  39    1:50   0.00   45.9    97    1.5   348     2.6   1022.0    0.00 
  39    2:00   0.00   46.2    96    2.0    15     3.4   1022.0    0.00 
  39    2:10   0.00   45.2    96    1.8    41     2.9   1022.0    0.00 
  39    2:20   0.00   44.8    97    2.7    18     3.3   1022.0    0.00 
  39    2:30   0.00   45.3    97    2.1   340     2.8   1022.0    0.00 
  39    2:40   0.00   45.7    97    2.4   314     3.6   1022.0    0.00 
  39    2:50   0.00   45.7    98    2.8   329     3.4   1022.0    0.00 
  39    3:00   0.00   46.3    98    2.8   338     3.5   1022.0    0.00 
  39    3:10   0.00   46.0    97    2.3    18     3.6   1022.0    0.00 
  39    3:20   0.00   43.3    97    2.3    41     3.4   1022.0    0.00 
  39    3:30   0.00   41.6    98    3.5    81     4.8   1022.0    0.00 
  39    3:40   0.00   41.9    99    3.7    90     4.5   1022.0    0.00 
  39    3:50   0.00   42.2    99    3.6    93     4.7   1022.4    0.00 
  39    4:00   0.00   42.3    98    3.8    95     4.7   1022.0    0.00 
  39    4:10   0.00   42.3    99    4.1    95     4.9   1022.4    0.00 
  39    4:20   0.00   42.5    99    3.9   101     4.7   1022.0    0.00 
  39    4:30   0.00   43.0   100    4.6   100     6.6   1022.4    0.00 
  39    4:40   0.00   43.1   100    6.2    97     7.1   1022.4    0.00 
  39    4:50   0.00   43.7   100    8.1    94     9.7   1022.4    0.00 
  39    5:00   0.00   44.0   100    8.1    82     9.3   1022.4    0.00 
  39    5:10   0.00   43.8   100    9.6    69    11.0   1022.4    0.00 
  39    5:20   0.00   44.2   100    8.8    79    10.2   1022.4    0.00 
  39    5:30   0.00   44.6   100    7.9    83     9.7   1022.4    0.00 
  39    5:40   0.00   44.3   100    9.1    80     9.7   1022.4    0.00 
  39    5:50   0.00   43.8   100    9.3    66    10.6   1022.4    0.00 
  39    6:00   0.00   43.8   100    9.6    63    10.4   1022.4    0.00 
  39    6:10   0.00   44.8    98   10.2    65    11.4   1022.0    0.00 
  39    6:20   0.00   46.8    92   10.4    65    13.1   1022.0    0.00 
  39    6:30   0.00   47.3    89   10.1    75    11.8   1022.0    0.00 
  39    6:40   0.00   46.7    90   10.9    70    12.1   1022.0    0.00 
  39    6:50   0.00   47.3    88   10.6    64    13.3   1022.0    0.00 
  39    7:00   0.00   46.8    90   10.7    65    12.5   1022.4    0.00 
  39    7:10   0.01   47.4    89   11.8    56    14.2   1022.4    0.00 
  39    7:20   0.02   49.1    84   12.4    50    15.1   1022.4    0.00 
  39    7:30   0.04   50.6    79   12.4    45    15.5   1022.0    0.00 
  39    7:40   0.06   51.1    78   12.6    47    16.5   1022.0    0.00 
  39    7:50   0.08   51.3    79   11.6    48    14.6   1022.0    0.00 
  39    8:00   0.11   51.6    78   12.3    44    15.4   1022.0    0.00 
  39    8:10   0.14   53.4    72   11.7    38    14.6   1022.0    0.00 
  39    8:20   0.17   55.1    67   12.9    36    15.9   1022.0    0.00 
  39    8:30   0.20   56.1    64   13.9    32    17.4   1022.0    0.00 
  39    8:40   0.23   56.2    65   12.7    28    16.0   1022.0    0.00 
  39    8:50   0.26   56.3    67   11.5    29    15.2   1022.0    0.00 
  39    9:00   0.28   56.9    65   10.8    31    13.1   1022.0    0.00 
  39    9:10   0.31   57.5    64   11.1    35    14.2   1022.4    0.00 
  39    9:20   0.34   58.3    62   10.6    27    13.3   1022.4    0.00 
  39    9:30   0.36   58.5    63   12.1    22    15.0   1022.4    0.00 
  39    9:40   0.39   58.9    61   11.8     9    14.9   1022.4    0.00 
  39    9:50   0.41   59.1    62   12.1     7    16.2   1022.4    0.00 
  39   10:00   0.43   59.1    62   14.0     4    18.1   1022.4    0.00 
  39   10:10   0.46   59.3    62   14.8     6    20.2   1022.4    0.00 
  39   10:20   0.47   59.9    59   16.7     8    20.0   1022.4    0.00 
  39   10:30   0.49   60.4    59   18.0    13    21.9   1022.4    0.00 
  39   10:40   0.51   61.3    58   17.9    15    21.5   1022.7    0.00 
  39   10:50   0.53   61.9    56   17.3    20    21.9   1022.7    0.00 
  39   11:00   0.54   63.4    55   16.3    27    20.0   1022.7    0.00 
  39   11:10   0.55   64.8    54   13.5    32    18.1   1022.7    0.00 
  39   11:20   0.56   65.3    54   12.1    31    17.2   1022.7    0.00 
  39   11:30   0.57   65.6    53   11.8    32    16.4   1022.7    0.00 
  39   11:40   0.58   65.6    54    9.7    32    15.0   1022.7    0.00 
  39   11:50   0.59   65.4    54    8.9    26    15.3   1022.7    0.00 
  39   12:00   0.59   65.2    52   11.3    20    15.8   1022.4    0.00 
  39   12:10   0.60   65.8    50    8.7    26    15.6   1022.4    0.00 
  39   12:20   0.60   66.6    54    8.0    57    11.2   1022.0    0.00 
  39   12:30   0.60   66.5    55    6.8    55    10.0   1022.0    0.00 
  39   12:40   0.59   66.7    55    7.3    68    10.0   1022.0    0.00 
  39   12:50   0.59   67.1    53    7.7    72    11.0   1021.7    0.00 
  39   13:00   0.59   67.6    53    7.0    73    10.2   1021.7    0.00 
  39   13:10   0.58   68.0    51    7.3    63     9.4   1021.3    0.00 
  39   13:20   0.57   68.2    52    7.3    56    10.1   1021.3    0.00 
  39   13:30   0.56   68.5    54    8.6    52    11.6   1021.0    0.00 
  39   13:40   0.55   68.4    54    8.5    48    11.6   1020.7    0.00 
  39   13:50   0.54   69.0    53    8.0    59    11.0   1020.7    0.00 
  39   14:00   0.52   69.5    51    8.9    50    11.5   1020.7    0.00 
  39   14:10   0.50   69.2    49    9.1    42    12.3   1020.7    0.00 
  39   14:20   0.49   70.2    48    8.9    52    13.2   1020.3    0.00 
  39   14:30   0.47   70.3    48    8.8    46    12.6   1020.3    0.00 
  39   14:40   0.45   70.6    47    8.7    58    11.6   1020.3    0.00 
  39   14:50   0.42   70.4    46    8.6    60    11.5   1020.3    0.00 
  39   15:00   0.40   70.5    45    8.5    60    11.2   1020.0    0.00 
  39   15:10   0.38   70.8    43    8.7    58    12.3   1020.0    0.00 
  39   15:20   0.35   70.9    43    7.7    55     9.6   1020.0    0.00 
  39   15:30   0.33   71.2    44    6.9    64     9.7   1020.0    0.00 
  39   15:40   0.30   71.4    44    5.9    78     7.5   1020.0    0.00 
  39   15:50   0.27   71.3    43    5.4    83     7.2   1020.0    0.00 
  39   16:00   0.24   71.5    44    5.8    83     8.0   1020.0    0.00 
  39   16:10   0.22   71.3    46    5.0    93     6.6   1020.0    0.00 
  39   16:20   0.19   70.9    46    4.6    90     6.6   1020.0    0.00 
  39   16:30   0.16   70.8    50    4.5   111     5.8   1020.0    0.00 
  39   16:40   0.13   70.0    56    4.8   120     5.3   1020.0    0.00 
  39   16:50   0.10   69.2    59    4.9   120     5.3   1020.0    0.00 
  39   17:00   0.07   68.3    62    4.7   117     5.2   1020.0    0.00 
  39   17:10   0.06   67.4    65    4.6   115     5.1   1020.0    0.00 
  39   17:20   0.03   66.3    66    5.3   120     5.8   1020.0    0.00 
  39   17:30   0.01   63.9    73    5.2   129     6.8   1020.0    0.00 
  39   17:40   0.01   61.5    76    7.4   126     7.9   1020.0    0.00 
  39   17:50   0.00   59.4    79    6.2   131     7.1   1019.6    0.00 
  39   18:00   0.00   58.2    81    5.8   123     6.6   1019.6    0.00 
  39   18:10   0.00   57.4    81    5.9   125     6.4   1019.3    0.00 
  39   18:20   0.00   57.0    82    5.3   124     5.8   1019.3    0.00 
  39   18:30   0.00   56.6    84    3.9   138     5.2   1019.3    0.00 
  39   18:40   0.00   56.6    83    2.8   131     3.8   1019.3    0.00 
  39   18:50   0.00   57.2    78    1.4   126     2.1   1019.3    0.00 
  39   19:00   0.00   55.8    80    2.2   144     2.9   1019.3    0.00 
  39   19:10   0.00   55.4    79    0.7   142     1.4   1019.3    0.00 
  39   19:20   0.00   55.5    83    1.4   280     4.7   1019.6    0.00 
  39   19:30   0.00   53.4    88    2.1   280     2.9   1019.6    0.00 
  39   19:40   0.00   53.7    89    1.1   287     1.7   1019.6    0.00 
  39   19:50   0.00   54.1    91    0.3   292     1.4   1019.6    0.00 
  39   20:00   0.00   54.2    90    1.1   284     1.7   1020.0    0.00 
  39   20:10   0.00   53.8    92    0.9   284     1.4   1020.0    0.00 
  39   20:20   0.00   54.6    90    1.2   327     2.0   1020.0    0.00 
  39   20:30   0.00   55.0    87    2.5   344     3.4   1020.0    0.00 
  39   20:40   0.00   51.0    88    0.5   351     2.0   1020.0    0.00 
  39   20:50   0.00   49.5    93    0.7     1     1.8   1020.0    0.00 
  39   21:00   0.00   50.0    94    0.8    30     1.8   1020.0    0.00 
  39   21:10   0.00   49.0    91    0.9    30     1.8   1020.0    0.00 
  39   21:20   0.00   48.0    93    2.0    44     2.4   1020.0    0.00 
  39   21:30   0.00   47.9    94    1.7    58     2.4   1020.0    0.00 
  39   21:40   0.00   48.1    93    1.6    70     2.3   1020.3    0.00 
  39   21:50   0.00   48.0    93    0.2    69     0.9   1020.3    0.00 
  39   22:00   0.00   48.1    95    0.9   133     1.8   1020.3    0.00 

Return to Jepson Prairie Reserve graphs page.


Western Regional Climate Center,wrcc@dri.edu